createdAt,value
2024-05-09T00:02:06.409Z,10.23
2024-05-09T00:07:08.373Z,9.50
2024-05-09T00:12:10.420Z,11.80
2024-05-09T00:17:12.520Z,14.10
2024-05-09T00:22:14.679Z,13.10
2024-05-09T00:27:16.726Z,9.30
2024-05-09T00:32:18.771Z,10.67
2024-05-09T00:37:21.925Z,9.70
2024-05-09T00:42:23.938Z,9.90
2024-05-09T00:47:25.978Z,9.83
2024-05-09T00:52:29.979Z,12.97
2024-05-09T00:57:32.388Z,12.53
2024-05-09T01:02:34.586Z,12.67
2024-05-09T01:07:37.019Z,10.60
2024-05-09T01:12:39.211Z,10.60
2024-05-09T01:17:41.732Z,11.30
2024-05-09T01:22:44.875Z,12.93
2024-05-09T01:27:46.863Z,13.60
2024-05-09T01:32:49.104Z,13.90
2024-05-09T01:37:51.438Z,16.43
2024-05-09T01:42:53.416Z,11.40
2024-05-09T01:47:55.574Z,15.43
2024-05-09T01:52:57.725Z,11.33
2024-05-09T01:57:59.654Z,11.40
2024-05-09T02:03:02.106Z,7.00
2024-05-09T02:08:05.199Z,10.47
2024-05-09T02:13:08.106Z,8.60
2024-05-09T02:18:10.776Z,8.80
2024-05-09T02:23:13.838Z,9.87
2024-05-09T02:28:15.860Z,11.00
2024-05-09T02:33:18.068Z,9.33
2024-05-09T02:38:20.188Z,8.53
2024-05-09T02:43:22.248Z,10.40
2024-05-09T02:48:24.560Z,14.17
2024-05-09T02:53:26.663Z,18.10
2024-05-09T02:58:28.744Z,15.87
2024-05-09T03:03:30.976Z,14.83
2024-05-09T03:08:33.414Z,14.97
2024-05-09T03:13:35.434Z,14.23
2024-05-09T03:18:38.509Z,13.63
2024-05-09T03:23:44.216Z,10.90
2024-05-09T03:28:46.455Z,16.07
2024-05-09T03:33:48.732Z,19.40
2024-05-09T03:38:51.038Z,14.17
2024-05-09T03:43:53.073Z,13.40
2024-05-09T03:48:56.434Z,13.70
2024-05-09T03:53:58.567Z,16.83
2024-05-09T03:59:01.590Z,15.53
2024-05-09T04:04:03.726Z,16.53
2024-05-09T04:09:05.953Z,15.00
2024-05-09T04:14:07.951Z,15.30
2024-05-09T04:19:10.110Z,13.50
2024-05-09T04:24:12.139Z,15.97
2024-05-09T04:29:14.124Z,14.57
2024-05-09T04:34:16.359Z,13.87
2024-05-09T04:39:18.434Z,13.73
2024-05-09T04:44:20.884Z,14.20
2024-05-09T04:49:23.089Z,12.27
2024-05-09T04:54:33.820Z,16.03
2024-05-09T04:59:38.440Z,23.33
2024-05-09T05:04:40.422Z,11.80
2024-05-09T05:09:42.435Z,17.23
2024-05-09T05:14:44.393Z,14.47
2024-05-09T05:19:49.512Z,19.53
2024-05-09T05:24:51.934Z,17.93
2024-05-09T05:29:53.889Z,24.37
2024-05-09T05:34:55.896Z,19.40
2024-05-09T05:39:58.263Z,17.67
2024-05-09T05:45:00.337Z,23.93
2024-05-09T05:50:02.989Z,14.27
2024-05-09T05:55:05.994Z,18.43
2024-05-09T06:00:09.837Z,20.57
2024-05-09T06:05:16.192Z,24.73
2024-05-09T06:10:25.175Z,17.03
2024-05-09T06:15:31.262Z,16.07
2024-05-09T06:20:43.934Z,16.07
2024-05-09T06:25:46.545Z,16.60
2024-05-09T06:30:48.608Z,17.70
2024-05-09T06:35:50.656Z,16.00
2024-05-09T06:40:54.539Z,19.63
2024-05-09T06:45:57.087Z,14.00
2024-05-09T06:51:04.531Z,15.30
2024-05-09T06:56:07.867Z,17.63
2024-05-09T07:01:10.137Z,14.80
2024-05-09T07:06:12.578Z,11.97
2024-05-09T07:11:15.059Z,12.70
2024-05-09T07:16:17.393Z,12.23
2024-05-09T07:21:19.891Z,11.17
2024-05-09T07:26:22.221Z,15.50
2024-05-09T07:31:28.219Z,17.13
2024-05-09T07:36:30.706Z,10.30
2024-05-09T07:41:32.845Z,11.83
2024-05-09T07:47:36.466Z,12.43
2024-05-09T07:53:21.877Z,10.40
2024-05-09T07:57:19.512Z,13.17
2024-05-09T08:02:21.842Z,10.23
2024-05-09T08:07:23.941Z,11.20
2024-05-09T08:12:25.970Z,12.90
2024-05-09T08:17:30.522Z,9.97
2024-05-09T08:22:32.764Z,13.37
2024-05-09T08:27:34.809Z,10.20
2024-05-09T08:32:38.736Z,10.47
2024-05-09T08:37:42.375Z,8.63
2024-05-09T08:42:52.948Z,14.00
2024-05-09T08:47:56.221Z,12.40
2024-05-09T08:52:58.506Z,9.90
2024-05-09T08:58:03.810Z,15.83
2024-05-09T09:03:09.310Z,11.47
2024-05-09T09:08:11.608Z,10.83
2024-05-09T09:13:13.970Z,9.47
2024-05-09T09:18:17.323Z,9.50
2024-05-09T09:23:20.056Z,11.87
2024-05-09T09:28:23.496Z,10.60
2024-05-09T09:33:26.441Z,9.60
2024-05-09T09:38:32.359Z,12.17
2024-05-09T09:43:35.171Z,15.13
2024-05-09T09:48:39.858Z,11.07
2024-05-09T09:53:44.009Z,11.13
2024-05-09T09:58:48.202Z,11.30
2024-05-09T10:03:50.405Z,12.93
2024-05-09T10:08:52.833Z,10.87
2024-05-09T10:13:57.475Z,13.13
2024-05-09T10:18:59.751Z,10.93
2024-05-09T10:24:07.067Z,10.27
2024-05-09T10:29:17.672Z,7.30
2024-05-09T10:34:21.446Z,9.07
2024-05-09T10:39:25.466Z,11.33
2024-05-09T10:44:27.479Z,7.43
2024-05-09T10:49:29.580Z,10.10
2024-05-09T10:54:38.743Z,8.20
2024-05-09T10:59:43.013Z,8.60
2024-05-09T11:04:45.412Z,7.73
2024-05-09T11:09:48.347Z,9.53
2024-05-09T11:14:54.174Z,7.27
2024-05-09T11:19:56.193Z,6.90
2024-05-09T11:24:58.743Z,6.40
2024-05-09T11:30:01.771Z,7.87
2024-05-09T11:35:03.884Z,5.47
2024-05-09T11:40:11.465Z,7.60
2024-05-09T11:45:15.645Z,5.47
2024-05-09T11:50:26.793Z,6.27
2024-05-09T11:55:36.683Z,9.80
2024-05-09T12:00:39.110Z,5.90
2024-05-09T12:05:41.320Z,7.10
2024-05-09T12:10:43.564Z,4.87
2024-05-09T12:15:45.649Z,3.87
2024-05-09T12:20:47.704Z,5.30
2024-05-09T12:25:49.913Z,3.50
2024-05-09T12:30:52.029Z,3.57
2024-05-09T12:35:54.036Z,4.50
2024-05-09T12:40:56.259Z,6.67
2024-05-09T12:45:58.463Z,11.90
2024-05-09T12:51:00.475Z,4.50
2024-05-09T12:56:04.312Z,5.30
2024-05-09T13:01:07.379Z,5.47
2024-05-09T13:06:09.802Z,4.33
2024-05-09T13:11:12.093Z,9.23
2024-05-09T13:16:14.204Z,4.43
2024-05-09T13:21:16.325Z,3.30
2024-05-09T13:26:18.402Z,3.33
2024-05-09T13:31:20.828Z,2.70
2024-05-09T13:36:23.000Z,3.10
2024-05-09T13:41:25.007Z,3.20
2024-05-09T13:46:27.040Z,9.40
2024-05-09T13:51:29.151Z,3.50
2024-05-09T13:56:31.199Z,4.13
2024-05-09T14:01:33.331Z,4.70
2024-05-09T14:06:36.425Z,4.57
2024-05-09T14:11:38.416Z,4.80
2024-05-09T14:16:41.798Z,3.47
2024-05-09T14:21:43.965Z,1.97
2024-05-09T14:26:45.946Z,18.40
2024-05-09T14:31:47.941Z,2.30
2024-05-09T14:36:50.101Z,3.40
2024-05-09T14:41:52.120Z,3.77
2024-05-09T14:46:54.206Z,4.63
2024-05-09T14:51:56.232Z,2.70
2024-05-09T14:56:58.286Z,6.83
2024-05-09T15:02:00.387Z,2.43
2024-05-09T15:07:02.494Z,4.67
2024-05-09T15:12:04.971Z,9.80
2024-05-09T15:17:07.013Z,3.10
2024-05-09T15:22:11.706Z,3.00
2024-05-09T15:27:14.008Z,11.80
2024-05-09T15:32:16.024Z,5.20
2024-05-09T15:37:18.356Z,3.53
2024-05-09T15:42:20.473Z,2.87
2024-05-09T15:47:22.602Z,3.20
2024-05-09T15:52:24.591Z,4.53
2024-05-09T15:57:26.540Z,3.93
2024-05-09T16:02:28.637Z,3.20
2024-05-09T16:07:30.810Z,3.03
2024-05-09T16:12:32.814Z,5.10
2024-05-09T16:17:35.226Z,3.00
2024-05-09T16:22:37.596Z,3.33
2024-05-09T16:27:39.618Z,3.47
2024-05-09T16:32:44.024Z,2.30
2024-05-09T16:37:46.094Z,4.40
2024-05-09T16:42:48.094Z,4.63
2024-05-09T16:47:50.380Z,3.17
2024-05-09T16:52:52.411Z,2.40
2024-05-09T16:57:55.509Z,2.43
2024-05-09T17:02:57.632Z,2.80
2024-05-09T17:07:59.690Z,2.53
2024-05-09T17:13:02.487Z,2.73
2024-05-09T17:18:07.053Z,2.60
2024-05-09T17:23:13.614Z,6.30
2024-05-09T17:28:16.460Z,2.87
2024-05-09T17:33:18.727Z,5.13
2024-05-09T17:38:23.337Z,3.57
2024-05-09T17:43:25.570Z,3.73
2024-05-09T17:48:27.805Z,2.50
2024-05-09T17:53:29.805Z,5.40
2024-05-09T17:58:31.879Z,3.30
2024-05-09T18:03:34.312Z,4.60
2024-05-09T18:08:36.403Z,2.73
2024-05-09T18:13:38.352Z,3.97
2024-05-09T18:18:40.872Z,5.77
2024-05-09T18:23:42.996Z,3.53
2024-05-09T18:28:45.153Z,5.10
2024-05-09T18:33:47.316Z,4.10
2024-05-09T18:38:49.440Z,4.63
2024-05-09T18:43:51.491Z,2.00
2024-05-09T18:48:53.826Z,2.90
2024-05-09T18:53:55.909Z,4.47
2024-05-09T18:58:57.826Z,3.50
2024-05-09T19:03:59.970Z,2.77
2024-05-09T19:09:02.791Z,2.83
2024-05-09T19:14:06.730Z,3.60
2024-05-09T19:19:09.996Z,4.10
2024-05-09T19:24:12.132Z,5.53
2024-05-09T19:29:14.103Z,4.60
2024-05-09T19:34:16.771Z,11.40
2024-05-09T19:39:18.888Z,7.07
2024-05-09T19:44:20.914Z,3.67
2024-05-09T19:49:23.168Z,3.50
2024-05-09T19:54:25.219Z,4.63
2024-05-09T19:59:27.150Z,4.20
2024-05-09T20:04:29.206Z,3.67
2024-05-09T20:09:31.258Z,3.50
2024-05-09T20:14:33.340Z,2.97
2024-05-09T20:19:35.858Z,4.70
2024-05-09T20:24:38.288Z,5.77
2024-05-09T20:29:40.360Z,3.73
2024-05-09T20:34:43.265Z,4.10
2024-05-09T20:39:45.338Z,10.83
2024-05-09T20:44:50.180Z,4.27
2024-05-09T20:49:52.606Z,12.93
2024-05-09T20:54:54.661Z,4.97
2024-05-09T20:59:56.744Z,7.03
2024-05-09T21:04:58.963Z,6.30
2024-05-09T21:10:01.251Z,4.10
2024-05-09T21:15:03.338Z,7.60
2024-05-09T21:20:11.418Z,5.30
2024-05-09T21:25:16.455Z,4.07
2024-05-09T21:30:27.374Z,4.60
2024-05-09T21:35:34.892Z,4.90
2024-05-09T21:40:38.131Z,3.40
2024-05-09T21:45:40.604Z,4.20
2024-05-09T21:50:42.933Z,3.40
2024-05-09T21:55:46.512Z,4.07
2024-05-09T22:00:48.947Z,4.20
2024-05-09T22:05:51.100Z,4.23
2024-05-09T22:10:53.254Z,5.70
2024-05-09T22:15:55.437Z,3.50
2024-05-09T22:20:57.423Z,3.73
2024-05-09T22:25:59.358Z,4.43
2024-05-09T22:31:01.373Z,6.30
2024-05-09T22:36:03.443Z,4.70
2024-05-09T22:41:09.175Z,4.63
2024-05-09T22:46:11.372Z,5.27
2024-05-09T22:51:13.394Z,3.30
2024-05-09T22:56:25.495Z,7.67
2024-05-09T23:01:27.789Z,4.27
2024-05-09T23:06:31.661Z,12.23
2024-05-09T23:11:33.707Z,5.73
2024-05-09T23:16:35.902Z,4.13
2024-05-09T23:21:40.958Z,6.43
2024-05-09T23:26:43.462Z,6.70
2024-05-09T23:31:45.481Z,6.10
2024-05-09T23:36:47.502Z,3.70
2024-05-09T23:41:49.453Z,5.97
2024-05-09T23:46:51.493Z,8.00
2024-05-09T23:51:53.535Z,9.10
2024-05-09T23:56:55.546Z,5.47
